CES116 LIRF-EDDF
Flight info
| Callsign | CES116 |
|---|---|
| Flight time | N/A |
| Altitude | 38000 |
| Route | SOVAN DCT AMTEL DCT GIKEB DCT EKPEB DCT BRENO DCT KONIN DCT ERNAS T161 ASPAT/N0497F300 T161 DEBHI |
| Aircraft | A359/H-SDE1E2E3FGHIJ1J2J4J5LM1ORVWXY/LB1D1 |
Departure
| Time | N/A |
|---|---|
| Airport | Rome–Fiumicino Leonardo da Vinci International Airport (LIRF) |
Arrival
| Time | 2026-04-14 17:22 |
|---|---|
| Airport | Frankfurt Main Airport (EDDF) |
| Time | Latitude | Longitude | Altitude | Speed | Heading |
|---|---|---|---|---|---|
| 2026-04-14 16:05 | 42.59518 | 11.94624 | 17466 ft | 416 kts | 351° |
| 2026-04-14 16:06 | 42.62081 | 11.94043 | 17845 ft | 418 kts | 351° |
| 2026-04-14 16:06 | 42.64956 | 11.93390 | 18236 ft | 420 kts | 351° |
| 2026-04-14 16:06 | 42.67851 | 11.92732 | 18580 ft | 423 kts | 351° |
| 2026-04-14 16:06 | 42.70769 | 11.92068 | 18889 ft | 425 kts | 351° |
| 2026-04-14 16:07 | 42.73659 | 11.91410 | 19201 ft | 428 kts | 351° |
| 2026-04-14 16:07 | 42.76610 | 11.90737 | 19515 ft | 431 kts | 351° |
| 2026-04-14 16:07 | 42.79579 | 11.90060 | 19826 ft | 433 kts | 351° |
| 2026-04-14 16:07 | 42.82543 | 11.89245 | 20153 ft | 435 kts | 345° |
| 2026-04-14 16:08 | 42.85385 | 11.87810 | 20483 ft | 437 kts | 336° |
| 2026-04-14 16:08 | 42.88132 | 11.86017 | 20791 ft | 439 kts | 332° |
| 2026-04-14 16:08 | 42.90839 | 11.84059 | 21089 ft | 441 kts | 331° |
| 2026-04-14 16:08 | 42.93532 | 11.82027 | 21394 ft | 443 kts | 330° |
| 2026-04-14 16:09 | 42.96235 | 11.79970 | 21687 ft | 446 kts | 330° |
| 2026-04-14 16:09 | 42.98957 | 11.77913 | 21990 ft | 448 kts | 330° |
| 2026-04-14 16:09 | 43.01697 | 11.75863 | 22282 ft | 450 kts | 331° |
| 2026-04-14 16:09 | 43.04463 | 11.73814 | 22605 ft | 451 kts | 331° |
| 2026-04-14 16:10 | 43.07224 | 11.71779 | 22957 ft | 452 kts | 331° |
| 2026-04-14 16:10 | 43.10002 | 11.69735 | 23246 ft | 454 kts | 331° |
| 2026-04-14 16:10 | 43.12762 | 11.67705 | 23505 ft | 457 kts | 331° |
| 2026-04-14 16:10 | 43.15569 | 11.65637 | 23730 ft | 459 kts | 331° |
| 2026-04-14 16:11 | 43.18420 | 11.63608 | 23978 ft | 461 kts | 335° |
| 2026-04-14 16:11 | 43.21416 | 11.62045 | 24231 ft | 462 kts | 344° |
| 2026-04-14 16:11 | 43.24568 | 11.61157 | 24469 ft | 463 kts | 354° |
| 2026-04-14 16:11 | 43.27783 | 11.60856 | 24766 ft | 463 kts | 358° |
| 2026-04-14 16:12 | 43.31008 | 11.60757 | 25018 ft | 465 kts | 0° |
| 2026-04-14 16:12 | 43.34250 | 11.60764 | 25265 ft | 467 kts | 1° |
| 2026-04-14 16:12 | 43.37505 | 11.60813 | 25508 ft | 468 kts | 1° |
| 2026-04-14 16:12 | 43.40769 | 11.60869 | 25771 ft | 470 kts | 1° |
| 2026-04-14 16:13 | 43.44042 | 11.60917 | 26037 ft | 471 kts | 1° |
| 2026-04-14 16:13 | 43.47327 | 11.60952 | 26289 ft | 473 kts | 0° |
| 2026-04-14 16:13 | 43.50624 | 11.60976 | 26553 ft | 475 kts | 0° |
| 2026-04-14 16:13 | 43.53942 | 11.60993 | 26814 ft | 477 kts | 0° |
| 2026-04-14 16:14 | 43.57271 | 11.61006 | 27100 ft | 479 kts | 0° |
| 2026-04-14 16:14 | 43.60613 | 11.61018 | 27380 ft | 481 kts | 0° |
| 2026-04-14 16:14 | 43.63929 | 11.61030 | 27662 ft | 483 kts | 0° |
| 2026-04-14 16:14 | 43.67292 | 11.61042 | 28023 ft | 484 kts | 0° |
| 2026-04-14 16:15 | 43.70674 | 11.61055 | 28316 ft | 486 kts | 0° |
| 2026-04-14 16:15 | 43.74075 | 11.61067 | 28596 ft | 489 kts | 0° |
| 2026-04-14 16:15 | 43.77482 | 11.61081 | 28890 ft | 491 kts | 0° |
| 2026-04-14 16:15 | 43.80907 | 11.61094 | 29195 ft | 493 kts | 0° |
| 2026-04-14 16:16 | 43.84345 | 11.61108 | 29498 ft | 495 kts | 0° |
| 2026-04-14 16:16 | 43.87786 | 11.61122 | 29879 ft | 495 kts | 0° |
| 2026-04-14 16:16 | 43.91245 | 11.61136 | 30133 ft | 498 kts | 0° |
| 2026-04-14 16:16 | 43.94718 | 11.61150 | 30385 ft | 500 kts | 0° |
| 2026-04-14 16:17 | 43.98164 | 11.61164 | 30618 ft | 502 kts | 0° |
| 2026-04-14 16:17 | 44.01667 | 11.61179 | 30850 ft | 505 kts | 0° |
| 2026-04-14 16:17 | 44.05185 | 11.61193 | 31046 ft | 507 kts | 0° |
| 2026-04-14 16:17 | 44.08728 | 11.61207 | 31265 ft | 510 kts | 0° |
| 2026-04-14 16:18 | 44.12289 | 11.61221 | 31483 ft | 512 kts | 0° |
| 2026-04-14 16:18 | 44.15861 | 11.61235 | 31731 ft | 513 kts | 0° |
| 2026-04-14 16:18 | 44.19433 | 11.61250 | 32026 ft | 514 kts | 0° |
| 2026-04-14 16:18 | 44.23013 | 11.61264 | 32303 ft | 514 kts | 0° |
| 2026-04-14 16:19 | 44.26586 | 11.61279 | 32601 ft | 514 kts | 0° |
| 2026-04-14 16:19 | 44.30169 | 11.61293 | 32865 ft | 515 kts | 0° |
| 2026-04-14 16:19 | 44.33751 | 11.61308 | 33134 ft | 515 kts | 0° |
| 2026-04-14 16:19 | 44.37349 | 11.61323 | 33405 ft | 516 kts | 0° |
| 2026-04-14 16:20 | 44.40938 | 11.61338 | 33689 ft | 516 kts | 360° |
| 2026-04-14 16:20 | 44.44504 | 11.61353 | 34288 ft | 507 kts | 360° |
| 2026-04-14 16:20 | 44.48013 | 11.61368 | 34757 ft | 503 kts | 359° |
| 2026-04-14 16:20 | 44.51474 | 11.61382 | 35014 ft | 502 kts | 359° |
| 2026-04-14 16:21 | 44.54972 | 11.61396 | 35222 ft | 503 kts | 359° |
| 2026-04-14 16:21 | 44.58479 | 11.61409 | 35453 ft | 503 kts | 359° |
| 2026-04-14 16:21 | 44.61981 | 11.61424 | 35744 ft | 501 kts | 359° |
| 2026-04-14 16:21 | 44.65462 | 11.61438 | 36064 ft | 499 kts | 359° |
| 2026-04-14 16:22 | 44.68933 | 11.61453 | 36332 ft | 498 kts | 359° |
| 2026-04-14 16:22 | 44.72399 | 11.61467 | 36560 ft | 498 kts | 359° |
| 2026-04-14 16:22 | 44.75739 | 11.61480 | 36768 ft | 498 kts | 359° |
| 2026-04-14 16:22 | 44.79195 | 11.61494 | 37048 ft | 496 kts | 359° |
| 2026-04-14 16:23 | 44.82677 | 11.61509 | 37331 ft | 495 kts | 359° |
| 2026-04-14 16:23 | 44.86091 | 11.61523 | 37617 ft | 493 kts | 359° |
| 2026-04-14 16:23 | 44.89509 | 11.61537 | 37819 ft | 493 kts | 359° |
| 2026-04-14 16:23 | 44.92985 | 11.61551 | 37974 ft | 494 kts | 359° |
| 2026-04-14 16:24 | 44.96420 | 11.61565 | 38028 ft | 497 kts | 359° |
| 2026-04-14 16:24 | 45.03336 | 11.61593 | 38029 ft | 501 kts | 359° |
| 2026-04-14 16:25 | 45.09143 | 11.61616 | 38033 ft | 500 kts | 359° |
| 2026-04-14 16:25 | 45.16106 | 11.61644 | 38028 ft | 499 kts | 359° |
| 2026-04-14 16:26 | 45.23012 | 11.61672 | 38030 ft | 497 kts | 359° |
| 2026-04-14 16:26 | 45.29948 | 11.61703 | 38030 ft | 495 kts | 359° |
| 2026-04-14 16:27 | 45.36795 | 11.61732 | 38027 ft | 494 kts | 359° |
| 2026-04-14 16:27 | 45.43686 | 11.61764 | 38029 ft | 494 kts | 359° |
| 2026-04-14 16:28 | 45.50620 | 11.61793 | 38030 ft | 495 kts | 359° |
| 2026-04-14 16:28 | 45.57515 | 11.61822 | 38033 ft | 495 kts | 359° |
| 2026-04-14 16:29 | 45.64402 | 11.61851 | 38032 ft | 494 kts | 359° |
| 2026-04-14 16:29 | 45.71275 | 11.61881 | 38033 ft | 494 kts | 359° |
| 2026-04-14 16:30 | 45.78095 | 11.61910 | 38031 ft | 493 kts | 358° |
| 2026-04-14 16:30 | 45.84974 | 11.61939 | 38035 ft | 494 kts | 358° |
| 2026-04-14 16:31 | 45.91859 | 11.61966 | 38038 ft | 494 kts | 359° |
| 2026-04-14 16:31 | 45.98733 | 11.61997 | 38032 ft | 494 kts | 359° |
| 2026-04-14 16:32 | 46.05606 | 11.62027 | 38031 ft | 493 kts | 358° |
| 2026-04-14 16:32 | 46.12475 | 11.62056 | 38033 ft | 493 kts | 359° |
| 2026-04-14 16:33 | 46.19304 | 11.61605 | 38034 ft | 491 kts | 349° |
| 2026-04-14 16:33 | 46.26033 | 11.59869 | 38041 ft | 490 kts | 347° |
| 2026-04-14 16:34 | 46.32675 | 11.57935 | 38024 ft | 490 kts | 347° |
| 2026-04-14 16:34 | 46.39367 | 11.55948 | 38023 ft | 490 kts | 347° |
| 2026-04-14 16:35 | 46.46041 | 11.53975 | 38044 ft | 488 kts | 347° |
| 2026-04-14 16:35 | 46.52703 | 11.52014 | 38045 ft | 488 kts | 347° |
| 2026-04-14 16:36 | 46.59358 | 11.50057 | 38041 ft | 488 kts | 347° |
| 2026-04-14 16:36 | 46.66019 | 11.48091 | 38049 ft | 488 kts | 347° |
| 2026-04-14 16:37 | 46.72669 | 11.46089 | 38052 ft | 488 kts | 346° |
| 2026-04-14 16:37 | 46.79295 | 11.43901 | 38061 ft | 488 kts | 346° |
| 2026-04-14 16:38 | 46.85902 | 11.41683 | 38076 ft | 487 kts | 346° |
| 2026-04-14 16:38 | 46.92522 | 11.39483 | 38094 ft | 487 kts | 346° |
| 2026-04-14 16:39 | 46.99157 | 11.37835 | 38103 ft | 482 kts | 356° |
| 2026-04-14 16:39 | 47.05888 | 11.37539 | 38119 ft | 488 kts | 358° |
| 2026-04-14 16:40 | 47.12703 | 11.37471 | 38155 ft | 489 kts | 359° |
| 2026-04-14 16:40 | 47.19509 | 11.37440 | 38157 ft | 489 kts | 359° |
| 2026-04-14 16:41 | 47.26311 | 11.37392 | 38156 ft | 489 kts | 358° |
| 2026-04-14 16:41 | 47.33123 | 11.37327 | 38158 ft | 489 kts | 359° |
| 2026-04-14 16:42 | 47.39933 | 11.37258 | 38160 ft | 489 kts | 359° |
| 2026-04-14 16:42 | 47.46696 | 11.37190 | 38163 ft | 489 kts | 359° |
| 2026-04-14 16:43 | 47.53506 | 11.37123 | 38173 ft | 490 kts | 359° |
| 2026-04-14 16:43 | 47.60336 | 11.37056 | 38178 ft | 490 kts | 359° |
| 2026-04-14 16:44 | 47.67139 | 11.36989 | 38186 ft | 488 kts | 358° |
| 2026-04-14 16:44 | 47.73922 | 11.36922 | 38183 ft | 488 kts | 358° |
| 2026-04-14 16:45 | 47.84106 | 11.36809 | 38179 ft | 487 kts | 358° |
| 2026-04-14 16:45 | 47.90851 | 11.36033 | 38181 ft | 486 kts | 353° |
| 2026-04-14 16:46 | 47.97594 | 11.35059 | 38184 ft | 486 kts | 353° |
| 2026-04-14 16:46 | 48.04276 | 11.34054 | 38184 ft | 486 kts | 353° |
| 2026-04-14 16:47 | 48.11013 | 11.33041 | 38184 ft | 486 kts | 353° |
| 2026-04-14 16:47 | 48.17744 | 11.32035 | 38183 ft | 486 kts | 353° |
| 2026-04-14 16:48 | 48.24473 | 11.31029 | 38184 ft | 486 kts | 353° |
| 2026-04-14 16:48 | 48.31192 | 11.30022 | 38184 ft | 486 kts | 353° |
| 2026-04-14 16:49 | 48.37923 | 11.29010 | 38184 ft | 486 kts | 353° |
| 2026-04-14 16:49 | 48.44616 | 11.28001 | 38184 ft | 486 kts | 353° |
| 2026-04-14 16:50 | 48.51286 | 11.26994 | 38183 ft | 483 kts | 353° |
| 2026-04-14 16:50 | 48.58002 | 11.25976 | 38184 ft | 481 kts | 353° |
| 2026-04-14 16:51 | 48.64659 | 11.24964 | 38184 ft | 481 kts | 353° |
| 2026-04-14 16:51 | 48.71275 | 11.23956 | 38184 ft | 481 kts | 353° |
| 2026-04-14 16:52 | 48.77928 | 11.22895 | 38183 ft | 480 kts | 350° |
| 2026-04-14 16:52 | 48.84307 | 11.20082 | 38184 ft | 478 kts | 334° |
| 2026-04-14 16:53 | 48.89810 | 11.14525 | 38175 ft | 475 kts | 319° |
| 2026-04-14 16:53 | 48.92296 | 11.11245 | 37626 ft | 472 kts | 317° |
| 2026-04-14 16:53 | 48.94733 | 11.07876 | 36718 ft | 476 kts | 316° |
| 2026-04-14 16:54 | 48.97170 | 11.04429 | 35928 ft | 478 kts | 316° |
| 2026-04-14 16:54 | 48.99600 | 11.00974 | 35228 ft | 477 kts | 316° |
| 2026-04-14 16:54 | 49.02029 | 10.97516 | 34491 ft | 478 kts | 316° |
| 2026-04-14 16:54 | 49.04460 | 10.94063 | 33678 ft | 479 kts | 316° |
| 2026-04-14 16:55 | 49.06900 | 10.90608 | 32885 ft | 478 kts | 316° |
| 2026-04-14 16:55 | 49.09342 | 10.87158 | 32080 ft | 478 kts | 316° |
| 2026-04-14 16:55 | 49.11790 | 10.83699 | 31260 ft | 479 kts | 316° |
| 2026-04-14 16:55 | 49.14237 | 10.80236 | 30470 ft | 481 kts | 316° |
| 2026-04-14 16:56 | 49.16700 | 10.76748 | 29521 ft | 483 kts | 316° |
| 2026-04-14 16:56 | 49.19157 | 10.73261 | 28748 ft | 481 kts | 316° |
| 2026-04-14 16:56 | 49.21564 | 10.69755 | 28155 ft | 475 kts | 313° |
| 2026-04-14 16:56 | 49.23825 | 10.66169 | 27506 ft | 470 kts | 312° |
| 2026-04-14 16:57 | 49.26071 | 10.62562 | 26912 ft | 466 kts | 312° |
| 2026-04-14 16:57 | 49.28304 | 10.58994 | 26289 ft | 463 kts | 312° |
| 2026-04-14 16:57 | 49.30532 | 10.55448 | 25695 ft | 459 kts | 312° |
| 2026-04-14 16:57 | 49.32740 | 10.51941 | 25093 ft | 456 kts | 312° |
| 2026-04-14 16:58 | 49.34932 | 10.48448 | 24496 ft | 453 kts | 311° |
| 2026-04-14 16:58 | 49.36928 | 10.44745 | 23985 ft | 446 kts | 305° |
| 2026-04-14 16:58 | 49.38725 | 10.40887 | 23622 ft | 445 kts | 303° |
| 2026-04-14 16:58 | 49.40504 | 10.36985 | 23236 ft | 445 kts | 303° |
| 2026-04-14 16:59 | 49.42270 | 10.33102 | 22860 ft | 443 kts | 303° |
| 2026-04-14 16:59 | 49.44033 | 10.29224 | 22511 ft | 441 kts | 303° |
| 2026-04-14 16:59 | 49.45789 | 10.25360 | 22135 ft | 439 kts | 303° |
| 2026-04-14 16:59 | 49.47534 | 10.21519 | 21751 ft | 437 kts | 303° |
| 2026-04-14 17:00 | 49.49268 | 10.17693 | 21410 ft | 435 kts | 303° |
| 2026-04-14 17:00 | 49.50998 | 10.13875 | 21051 ft | 434 kts | 303° |
| 2026-04-14 17:00 | 49.52720 | 10.10066 | 20692 ft | 432 kts | 303° |
| 2026-04-14 17:00 | 49.54409 | 10.06333 | 20350 ft | 430 kts | 303° |
| 2026-04-14 17:01 | 49.56136 | 10.02508 | 19987 ft | 428 kts | 303° |
| 2026-04-14 17:01 | 49.57828 | 9.98747 | 19623 ft | 426 kts | 303° |
| 2026-04-14 17:01 | 49.59513 | 9.95005 | 19279 ft | 425 kts | 304° |
| 2026-04-14 17:01 | 49.61191 | 9.91267 | 18935 ft | 423 kts | 304° |
| 2026-04-14 17:02 | 49.62822 | 9.87623 | 18596 ft | 421 kts | 304° |
| 2026-04-14 17:02 | 49.64519 | 9.83829 | 18217 ft | 419 kts | 304° |
| 2026-04-14 17:02 | 49.66147 | 9.80186 | 17859 ft | 417 kts | 304° |
| 2026-04-14 17:02 | 49.67786 | 9.76514 | 17509 ft | 414 kts | 304° |
| 2026-04-14 17:03 | 49.69422 | 9.72847 | 17180 ft | 412 kts | 304° |
| 2026-04-14 17:03 | 49.71041 | 9.69209 | 16828 ft | 410 kts | 303° |
| 2026-04-14 17:03 | 49.72649 | 9.65593 | 16487 ft | 407 kts | 303° |
| 2026-04-14 17:03 | 49.74248 | 9.61994 | 16146 ft | 405 kts | 304° |
| 2026-04-14 17:04 | 49.75838 | 9.58418 | 15832 ft | 403 kts | 303° |
| 2026-04-14 17:04 | 49.77416 | 9.54849 | 15493 ft | 401 kts | 303° |
| 2026-04-14 17:04 | 49.78984 | 9.51298 | 15171 ft | 398 kts | 303° |
| 2026-04-14 17:04 | 49.80536 | 9.47780 | 14848 ft | 396 kts | 303° |
| 2026-04-14 17:05 | 49.82081 | 9.44277 | 14522 ft | 393 kts | 303° |
| 2026-04-14 17:05 | 49.83619 | 9.40786 | 14193 ft | 391 kts | 303° |
| 2026-04-14 17:05 | 49.85140 | 9.37313 | 13857 ft | 389 kts | 303° |
| 2026-04-14 17:05 | 49.86407 | 9.33637 | 13530 ft | 386 kts | 290° |
| 2026-04-14 17:06 | 49.87251 | 9.29700 | 13215 ft | 384 kts | 286° |
| 2026-04-14 17:06 | 49.88005 | 9.25729 | 12890 ft | 382 kts | 285° |
| 2026-04-14 17:06 | 49.88738 | 9.21833 | 12583 ft | 381 kts | 285° |
| 2026-04-14 17:06 | 49.89484 | 9.17889 | 12259 ft | 380 kts | 285° |
| 2026-04-14 17:07 | 49.90227 | 9.13970 | 11952 ft | 378 kts | 285° |
| 2026-04-14 17:07 | 49.90969 | 9.10052 | 11649 ft | 377 kts | 285° |
| 2026-04-14 17:07 | 49.91696 | 9.06211 | 11351 ft | 376 kts | 285° |
| 2026-04-14 17:07 | 49.92258 | 9.02294 | 11194 ft | 366 kts | 276° |
| 2026-04-14 17:08 | 49.92390 | 8.98458 | 11184 ft | 345 kts | 269° |
| 2026-04-14 17:08 | 49.92322 | 8.94790 | 11189 ft | 340 kts | 266° |
| 2026-04-14 17:08 | 49.92144 | 8.91110 | 11181 ft | 343 kts | 264° |
| 2026-04-14 17:08 | 49.91911 | 8.87425 | 11179 ft | 344 kts | 263° |
| 2026-04-14 17:09 | 49.91659 | 8.83720 | 11179 ft | 344 kts | 263° |
| 2026-04-14 17:09 | 49.91414 | 8.80106 | 11178 ft | 328 kts | 263° |
| 2026-04-14 17:09 | 49.91192 | 8.76727 | 11100 ft | 313 kts | 263° |
| 2026-04-14 17:09 | 49.90982 | 8.73423 | 10885 ft | 302 kts | 263° |
| 2026-04-14 17:10 | 49.90787 | 8.70232 | 10698 ft | 293 kts | 264° |
| 2026-04-14 17:10 | 49.90600 | 8.67119 | 10416 ft | 286 kts | 263° |
| 2026-04-14 17:10 | 49.90414 | 8.64058 | 10066 ft | 284 kts | 263° |
| 2026-04-14 17:10 | 49.90226 | 8.61027 | 9641 ft | 282 kts | 263° |
| 2026-04-14 17:11 | 49.90038 | 8.58004 | 9232 ft | 280 kts | 264° |
| 2026-04-14 17:11 | 49.89851 | 8.54997 | 8755 ft | 280 kts | 264° |
| 2026-04-14 17:11 | 49.89661 | 8.51987 | 8296 ft | 281 kts | 265° |
| 2026-04-14 17:11 | 49.89471 | 8.48961 | 7814 ft | 282 kts | 265° |
| 2026-04-14 17:12 | 49.89287 | 8.45938 | 7401 ft | 282 kts | 266° |
| 2026-04-14 17:12 | 49.89099 | 8.42918 | 7012 ft | 280 kts | 266° |
| 2026-04-14 17:12 | 49.88909 | 8.39916 | 6587 ft | 280 kts | 266° |
| 2026-04-14 17:12 | 49.88783 | 8.37916 | 6233 ft | 282 kts | 266° |
| 2026-04-14 17:13 | 49.88593 | 8.34896 | 5863 ft | 280 kts | 266° |
| 2026-04-14 17:13 | 49.88387 | 8.31917 | 5520 ft | 276 kts | 263° |
| 2026-04-14 17:13 | 49.87750 | 8.28166 | 5239 ft | 267 kts | 251° |
| 2026-04-14 17:13 | 49.87110 | 8.25490 | 4945 ft | 263 kts | 250° |
| 2026-04-14 17:14 | 49.86467 | 8.22879 | 4716 ft | 255 kts | 250° |
| 2026-04-14 17:14 | 49.86045 | 8.21164 | 4626 ft | 248 kts | 250° |
| 2026-04-14 17:14 | 49.85453 | 8.18736 | 4482 ft | 239 kts | 250° |
| 2026-04-14 17:14 | 49.84904 | 8.16362 | 4325 ft | 229 kts | 256° |
| 2026-04-14 17:15 | 49.84745 | 8.13975 | 4153 ft | 219 kts | 277° |
| 2026-04-14 17:15 | 49.85201 | 8.11791 | 3980 ft | 210 kts | 305° |
| 2026-04-14 17:15 | 49.86252 | 8.10269 | 3968 ft | 207 kts | 334° |
| 2026-04-14 17:15 | 49.87625 | 8.09902 | 3970 ft | 203 kts | 14° |
| 2026-04-14 17:16 | 49.88836 | 8.10961 | 3979 ft | 202 kts | 40° |
| 2026-04-14 17:16 | 49.89922 | 8.12463 | 3988 ft | 218 kts | 41° |
| 2026-04-14 17:16 | 49.91084 | 8.14049 | 3975 ft | 225 kts | 40° |
| 2026-04-14 17:16 | 49.92286 | 8.15619 | 3981 ft | 227 kts | 39° |
| 2026-04-14 17:17 | 49.93478 | 8.17182 | 3980 ft | 227 kts | 44° |
| 2026-04-14 17:17 | 49.94433 | 8.19125 | 3984 ft | 227 kts | 60° |
| 2026-04-14 17:17 | 49.95081 | 8.21352 | 3987 ft | 227 kts | 68° |
| 2026-04-14 17:17 | 49.95621 | 8.23651 | 3982 ft | 225 kts | 69° |
| 2026-04-14 17:18 | 49.96149 | 8.25892 | 3973 ft | 213 kts | 68° |
| 2026-04-14 17:18 | 49.96653 | 8.27993 | 3856 ft | 203 kts | 68° |
| 2026-04-14 17:18 | 49.97150 | 8.30019 | 3613 ft | 199 kts | 68° |
| 2026-04-14 17:18 | 49.97633 | 8.32029 | 3290 ft | 198 kts | 69° |
| 2026-04-14 17:19 | 49.98104 | 8.34006 | 2992 ft | 191 kts | 68° |
| 2026-04-14 17:19 | 49.98554 | 8.35884 | 2761 ft | 179 kts | 68° |
| 2026-04-14 17:19 | 49.98974 | 8.37638 | 2508 ft | 167 kts | 68° |
| 2026-04-14 17:19 | 49.99366 | 8.39276 | 2286 ft | 157 kts | 68° |
| 2026-04-14 17:20 | 49.99736 | 8.40821 | 2075 ft | 148 kts | 68° |
| 2026-04-14 17:20 | 50.00080 | 8.42259 | 1881 ft | 140 kts | 68° |
| 2026-04-14 17:20 | 50.00416 | 8.43664 | 1710 ft | 138 kts | 68° |
| 2026-04-14 17:20 | 50.00754 | 8.45073 | 1503 ft | 139 kts | 69° |
| 2026-04-14 17:21 | 50.01092 | 8.46487 | 1322 ft | 140 kts | 68° |
| 2026-04-14 17:21 | 50.01439 | 8.47893 | 1105 ft | 139 kts | 68° |
| 2026-04-14 17:21 | 50.01800 | 8.49316 | 916 ft | 140 kts | 68° |
| 2026-04-14 17:21 | 50.02131 | 8.50718 | 737 ft | 139 kts | 69° |
| 2026-04-14 17:22 | 50.02462 | 8.52135 | 565 ft | 140 kts | 69° |
| 2026-04-14 17:22 | 50.02797 | 8.53563 | 372 ft | 140 kts | 70° |
| 2026-04-14 17:22 | 50.03100 | 8.54857 | 357 ft | 98 kts | 70° |
| 2026-04-14 17:22 | 50.03244 | 8.55460 | 356 ft | 40 kts | 68° |
| 2026-04-14 17:23 | 50.03389 | 8.55797 | 360 ft | 36 kts | 43° |
| 2026-04-14 17:23 | 50.03537 | 8.55988 | 364 ft | 22 kts | 40° |
| 2026-04-14 17:23 | 50.03645 | 8.56146 | 367 ft | 21 kts | 55° |
| 2026-04-14 17:23 | 50.03704 | 8.56356 | 365 ft | 22 kts | 71° |
| 2026-04-14 17:24 | 50.03758 | 8.56586 | 365 ft | 23 kts | 70° |
| 2026-04-14 17:24 | 50.03815 | 8.56827 | 368 ft | 24 kts | 69° |
| 2026-04-14 17:24 | 50.03875 | 8.57073 | 367 ft | 24 kts | 69° |
| 2026-04-14 17:24 | 50.03931 | 8.57309 | 376 ft | 23 kts | 70° |
| 2026-04-14 17:25 | 50.03984 | 8.57535 | 374 ft | 23 kts | 70° |
| 2026-04-14 17:25 | 50.04040 | 8.57767 | 376 ft | 23 kts | 69° |
| 2026-04-14 17:25 | 50.04099 | 8.58010 | 377 ft | 24 kts | 69° |
| 2026-04-14 17:25 | 50.04159 | 8.58257 | 377 ft | 25 kts | 69° |
| 2026-04-14 17:26 | 50.04221 | 8.58516 | 375 ft | 26 kts | 70° |
| 2026-04-14 17:26 | 50.04284 | 8.58782 | 378 ft | 26 kts | 70° |
| 2026-04-14 17:26 | 50.04346 | 8.59040 | 383 ft | 25 kts | 69° |
| 2026-04-14 17:26 | 50.04409 | 8.59298 | 382 ft | 26 kts | 69° |
| 2026-04-14 17:27 | 50.04466 | 8.59466 | 381 ft | 13 kts | 32° |
| 2026-04-14 17:27 | 50.04538 | 8.59470 | 380 ft | 0 kts | 357° |
| 2026-04-14 17:27 | 50.04545 | 8.59469 | 380 ft | 4 kts | 357° |
| 2026-04-14 17:28 | 50.04605 | 8.59465 | 379 ft | 12 kts | 357° |
| 2026-04-14 17:28 | 50.04697 | 8.59441 | 378 ft | 15 kts | 345° |
| 2026-04-14 17:28 | 50.04782 | 8.59396 | 378 ft | 0 kts | 340° |
| 2026-04-14 17:29 | 50.04805 | 8.59383 | 377 ft | 8 kts | 340° |
| 2026-04-14 17:29 | 50.04891 | 8.59371 | 376 ft | 17 kts | 8° |
| 2026-04-14 17:29 | 50.05017 | 8.59326 | 374 ft | 21 kts | 338° |
| 2026-04-14 17:30 | 50.05066 | 8.59151 | 369 ft | 20 kts | 251° |
| 2026-04-14 17:30 | 50.05015 | 8.58941 | 371 ft | 22 kts | 250° |
| 2026-04-14 17:30 | 50.04978 | 8.58787 | 373 ft | 0 kts | 250° |
| 2026-04-14 17:30 | 50.04976 | 8.58779 | 369 ft | 3 kts | 250° |
| 2026-04-14 17:31 | 50.04970 | 8.58718 | 370 ft | 8 kts | 278° |
| 2026-04-14 17:31 | 50.05016 | 8.58658 | 372 ft | 9 kts | 338° |
| 2026-04-14 17:31 | 50.05022 | 8.58654 | 365 ft | 0 kts | 337° |
| 2026-04-14 17:31 | 50.05036 | 8.58646 | 373 ft | 4 kts | 339° |
| 2026-04-14 17:32 | 50.05045 | 8.58640 | 373 ft | 0 kts | 339° |